createdAt,value
2019-01-06T00:00:21.346Z,5.10
2019-01-06T00:03:09.942Z,8.47
2019-01-06T00:12:09.729Z,7.63
2019-01-06T00:15:17.565Z,4.43
2019-01-06T00:18:25.456Z,4.70
2019-01-06T00:24:07.999Z,7.23
2019-01-06T00:27:15.859Z,5.13
2019-01-06T00:33:12.576Z,7.80
2019-01-06T00:36:20.441Z,8.00
2019-01-06T00:39:28.477Z,4.43
2019-01-06T00:42:36.351Z,6.23
2019-01-06T00:45:44.215Z,4.33
2019-01-06T00:48:52.069Z,7.10
2019-01-06T00:52:00.016Z,4.80
2019-01-06T01:01:05.450Z,5.07
2019-01-06T01:07:09.371Z,4.37
2019-01-06T01:10:17.186Z,4.73
2019-01-06T01:13:05.814Z,5.37
2019-01-06T01:16:13.739Z,4.33
2019-01-06T01:22:17.200Z,4.63
2019-01-06T01:28:34.514Z,5.73
2019-01-06T01:31:42.401Z,6.03
2019-01-06T01:34:28.842Z,7.30
2019-01-06T01:37:17.361Z,5.70
2019-01-06T01:40:25.283Z,6.87
2019-01-06T01:43:33.165Z,6.43
2019-01-06T01:46:41.011Z,5.60
2019-01-06T01:49:48.986Z,5.90
2019-01-06T01:52:56.915Z,6.43
2019-01-06T01:59:00.464Z,7.53
2019-01-06T02:02:08.365Z,5.60
2019-01-06T02:08:15.620Z,7.03
2019-01-06T02:11:23.544Z,6.30
2019-01-06T02:14:31.397Z,5.73
2019-01-06T02:17:19.918Z,5.73
2019-01-06T02:20:27.925Z,6.10
2019-01-06T02:23:35.873Z,5.33
2019-01-06T02:26:43.770Z,7.00
2019-01-06T02:29:51.705Z,6.17
2019-01-06T02:32:59.566Z,7.17
2019-01-06T02:35:46.524Z,6.37
2019-01-06T02:38:54.406Z,7.07
2019-01-06T02:47:57.417Z,9.17
2019-01-06T02:51:05.267Z,6.70
2019-01-06T02:57:12.480Z,6.90
2019-01-06T03:03:29.716Z,7.07
2019-01-06T03:06:37.607Z,6.60
2019-01-06T03:09:45.445Z,6.07
2019-01-06T03:12:45.504Z,5.60
2019-01-06T03:15:34.176Z,6.00
2019-01-06T03:18:42.038Z,6.10
2019-01-06T03:21:49.913Z,5.40
2019-01-06T03:24:57.816Z,5.20
2019-01-06T03:28:05.687Z,5.67
2019-01-06T03:30:54.205Z,5.23
2019-01-06T03:34:02.052Z,5.77
2019-01-06T03:37:09.909Z,6.83
2019-01-06T03:40:17.781Z,6.20
2019-01-06T03:43:25.624Z,5.70
2019-01-06T03:46:33.553Z,4.87
2019-01-06T03:49:41.438Z,5.27
2019-01-06T03:52:49.290Z,6.17
2019-01-06T03:55:57.143Z,6.60
2019-01-06T03:59:04.997Z,5.00
2019-01-06T04:02:12.865Z,5.60
2019-01-06T04:05:20.703Z,5.33
2019-01-06T04:11:24.602Z,6.13
2019-01-06T04:17:41.846Z,7.30
2019-01-06T04:20:49.674Z,4.97
2019-01-06T04:23:57.540Z,6.43
2019-01-06T04:27:05.365Z,5.33
2019-01-06T04:30:13.222Z,7.00
2019-01-06T04:33:01.806Z,7.70
2019-01-06T04:36:09.679Z,6.63
2019-01-06T04:39:17.511Z,5.67
2019-01-06T04:42:25.376Z,5.73
2019-01-06T04:45:33.282Z,5.87
2019-01-06T04:48:41.177Z,6.93
2019-01-06T04:51:49.009Z,7.73
2019-01-06T04:58:06.266Z,7.17
2019-01-06T05:01:14.099Z,6.03
2019-01-06T05:04:21.958Z,7.17
2019-01-06T05:07:29.788Z,7.17
2019-01-06T05:10:37.662Z,7.77
2019-01-06T05:13:45.527Z,6.83
2019-01-06T05:16:53.380Z,6.00
2019-01-06T05:22:41.426Z,8.67
2019-01-06T05:25:49.261Z,6.70
2019-01-06T05:28:57.121Z,5.90
2019-01-06T05:32:04.990Z,6.47
2019-01-06T05:35:12.882Z,7.57
2019-01-06T05:38:13.776Z,6.73
2019-01-06T05:41:21.647Z,5.77
2019-01-06T05:44:29.494Z,7.47
2019-01-06T05:50:17.340Z,5.93
2019-01-06T05:53:25.207Z,8.27
2019-01-06T05:56:33.043Z,7.17
2019-01-06T05:59:33.763Z,5.33
2019-01-06T06:02:41.611Z,6.33
2019-01-06T06:05:49.474Z,6.00
2019-01-06T06:08:57.342Z,8.27
2019-01-06T06:12:05.181Z,5.43
2019-01-06T06:15:13.042Z,4.70
2019-01-06T06:18:20.898Z,5.40
2019-01-06T06:24:24.395Z,5.93
2019-01-06T06:27:32.234Z,6.90
2019-01-06T06:30:40.098Z,5.83
2019-01-06T06:33:47.943Z,4.90
2019-01-06T06:36:55.959Z,5.37
2019-01-06T06:39:41.545Z,4.87
2019-01-06T06:42:49.429Z,8.87
2019-01-06T06:45:57.283Z,6.20
2019-01-06T06:49:05.171Z,6.00
2019-01-06T06:55:22.481Z,6.37
2019-01-06T06:58:30.811Z,5.83
2019-01-06T07:20:56.629Z,8.40
2019-01-06T07:29:55.524Z,6.53
2019-01-06T07:33:03.389Z,7.87
2019-01-06T07:36:11.262Z,9.33
2019-01-06T07:39:12.276Z,8.17
2019-01-06T07:42:20.141Z,8.57
2019-01-06T07:48:44.864Z,7.53
2019-01-06T07:51:52.729Z,7.13
2019-01-06T07:55:00.602Z,8.00
2019-01-06T08:01:04.386Z,6.20
2019-01-06T08:04:12.274Z,6.10
2019-01-06T08:07:20.092Z,6.00
2019-01-06T08:10:28.116Z,6.37
2019-01-06T08:16:31.772Z,5.87
2019-01-06T08:19:39.640Z,6.63
2019-01-06T08:22:47.511Z,6.87
2019-01-06T08:25:55.341Z,6.63
2019-01-06T08:32:02.474Z,7.27
2019-01-06T08:34:51.054Z,7.07
2019-01-06T08:37:34.837Z,8.03
2019-01-06T08:40:42.698Z,10.70
2019-01-06T08:49:45.381Z,9.63
2019-01-06T08:52:53.269Z,9.20
2019-01-06T08:56:01.140Z,7.00
2019-01-06T08:59:09.035Z,8.20
2019-01-06T09:01:57.729Z,8.50
2019-01-06T09:04:46.287Z,9.17
2019-01-06T09:07:54.121Z,10.97
2019-01-06T09:11:02.000Z,10.83
2019-01-06T09:14:09.900Z,10.90
2019-01-06T09:17:17.773Z,10.00
2019-01-06T09:20:27.257Z,10.53
2019-01-06T09:23:35.117Z,12.07
2019-01-06T09:26:43.036Z,14.60
2019-01-06T09:29:32.476Z,11.37
2019-01-06T09:32:41.159Z,13.10
2019-01-06T09:35:49.035Z,13.53
2019-01-06T09:38:50.242Z,14.03
2019-01-06T09:41:58.107Z,13.33
2019-01-06T09:45:05.992Z,16.80
2019-01-06T09:48:13.871Z,13.53
2019-01-06T09:51:21.722Z,15.87
2019-01-06T09:54:29.608Z,14.33
2019-01-06T09:57:37.469Z,14.50
2019-01-06T10:00:45.351Z,15.27
2019-01-06T10:03:53.245Z,16.63
2019-01-06T10:07:01.082Z,14.30
2019-01-06T10:10:08.950Z,14.37
2019-01-06T10:13:16.771Z,13.37
2019-01-06T10:16:24.654Z,12.07
2019-01-06T10:22:28.580Z,12.67
2019-01-06T10:31:31.360Z,12.00
2019-01-06T10:34:39.215Z,11.07
2019-01-06T10:37:47.151Z,9.63
2019-01-06T10:40:47.983Z,10.70
2019-01-06T10:43:55.917Z,8.53
2019-01-06T10:50:13.207Z,7.93
2019-01-06T10:53:21.106Z,8.50
2019-01-06T10:56:28.979Z,10.77
2019-01-06T10:59:36.842Z,9.17
2019-01-06T11:02:44.731Z,10.03
2019-01-06T11:05:52.639Z,8.70
2019-01-06T11:09:00.519Z,8.63
2019-01-06T11:12:15.969Z,9.33
2019-01-06T11:15:24.677Z,9.23
2019-01-06T11:18:32.634Z,9.83
2019-01-06T11:24:36.392Z,11.03
2019-01-06T11:27:24.960Z,9.50
2019-01-06T11:30:32.950Z,10.07
2019-01-06T11:33:21.542Z,10.70
2019-01-06T11:36:29.378Z,10.27
2019-01-06T11:39:37.270Z,12.53
2019-01-06T11:42:45.201Z,11.50
2019-01-06T11:45:53.151Z,11.07
2019-01-06T11:49:00.995Z,10.40
2019-01-06T11:52:08.911Z,11.00
2019-01-06T11:55:16.745Z,10.17
2019-01-06T11:58:24.613Z,8.67
2019-01-06T12:01:32.531Z,11.03
2019-01-06T12:04:40.470Z,10.60
2019-01-06T12:10:57.765Z,8.67
2019-01-06T12:14:05.610Z,8.03
2019-01-06T12:17:13.533Z,7.87
2019-01-06T12:23:30.775Z,10.77
2019-01-06T12:26:38.677Z,7.50
2019-01-06T12:29:46.568Z,9.27
2019-01-06T12:32:54.445Z,8.67
2019-01-06T12:36:02.352Z,9.47
2019-01-06T12:39:02.539Z,9.03
2019-01-06T12:42:10.429Z,8.70
2019-01-06T12:45:18.348Z,9.63
2019-01-06T12:48:26.218Z,9.13
2019-01-06T12:51:14.826Z,9.83
2019-01-06T12:54:22.725Z,9.30
2019-01-06T12:57:30.635Z,9.37
2019-01-06T13:00:38.494Z,9.97
2019-01-06T13:03:46.374Z,11.40
2019-01-06T13:09:49.998Z,9.33
2019-01-06T13:12:57.842Z,10.07
2019-01-06T13:16:05.719Z,9.47
2019-01-06T13:19:06.124Z,11.00
2019-01-06T13:22:13.972Z,11.03
2019-01-06T13:28:17.357Z,10.03
2019-01-06T13:31:25.285Z,8.13
2019-01-06T13:37:13.230Z,10.43
2019-01-06T13:40:21.122Z,9.83
2019-01-06T13:43:28.970Z,12.00
2019-01-06T13:46:36.846Z,10.37
2019-01-06T13:49:44.715Z,8.33
2019-01-06T13:52:52.539Z,9.80
2019-01-06T13:56:00.444Z,10.97
2019-01-06T14:01:45.074Z,9.80
2019-01-06T14:04:45.598Z,8.67
2019-01-06T14:07:53.491Z,9.80
2019-01-06T14:11:01.369Z,12.63
2019-01-06T14:14:09.393Z,9.87
2019-01-06T14:17:17.334Z,12.87
2019-01-06T14:20:25.622Z,8.93
2019-01-06T14:26:29.346Z,9.27
2019-01-06T14:29:37.299Z,10.60
2019-01-06T14:32:45.165Z,9.17
2019-01-06T14:39:10.422Z,10.00
2019-01-06T14:42:12.166Z,8.60
2019-01-06T14:44:56.426Z,7.33
2019-01-06T14:48:04.305Z,7.40
2019-01-06T14:51:12.263Z,8.40
2019-01-06T14:54:20.145Z,8.03
2019-01-06T14:57:27.987Z,7.37
2019-01-06T15:00:35.950Z,8.37
2019-01-06T15:03:43.859Z,8.70
2019-01-06T15:06:51.730Z,5.60
2019-01-06T15:12:55.267Z,9.77
2019-01-06T15:15:55.855Z,8.77
2019-01-06T15:19:03.733Z,7.20
2019-01-06T15:22:11.629Z,6.20
2019-01-06T15:25:19.587Z,8.63
2019-01-06T15:28:08.132Z,6.47
2019-01-06T15:31:16.026Z,6.70
2019-01-06T15:34:24.022Z,5.30
2019-01-06T15:37:31.897Z,9.00
2019-01-06T15:40:39.814Z,7.43
2019-01-06T15:43:47.694Z,9.33
2019-01-06T15:46:55.670Z,6.43
2019-01-06T15:50:03.531Z,6.83
2019-01-06T15:55:28.494Z,7.23
2019-01-06T15:58:36.408Z,7.03
2019-01-06T16:01:44.395Z,9.20
2019-01-06T16:04:52.233Z,5.57
2019-01-06T16:08:00.131Z,7.10
2019-01-06T16:10:45.376Z,6.47
2019-01-06T16:22:54.620Z,7.77
2019-01-06T16:26:02.531Z,7.63
2019-01-06T16:34:21.506Z,8.70
2019-01-06T16:37:10.157Z,10.10
2019-01-06T16:40:18.200Z,9.70
2019-01-06T16:46:35.714Z,10.03
2019-01-06T16:49:24.337Z,10.80
2019-01-06T16:52:32.407Z,10.83
2019-01-06T16:55:21.024Z,10.20
2019-01-06T16:58:28.963Z,12.90
2019-01-06T17:01:12.401Z,12.70
2019-01-06T17:04:20.267Z,10.83
2019-01-06T17:07:28.201Z,12.70
2019-01-06T17:10:36.196Z,11.90
2019-01-06T17:13:44.101Z,12.77
2019-01-06T17:16:52.048Z,13.60
2019-01-06T17:22:55.452Z,14.50
2019-01-06T17:26:03.382Z,16.53
2019-01-06T17:29:11.257Z,16.17
2019-01-06T17:32:19.172Z,15.77
2019-01-06T17:38:27.074Z,13.43
2019-01-06T17:41:34.916Z,13.90
2019-01-06T17:44:42.813Z,13.73
2019-01-06T17:47:50.783Z,14.70
2019-01-06T17:50:58.743Z,15.57
2019-01-06T17:54:06.632Z,11.67
2019-01-06T17:57:14.513Z,17.27
2019-01-06T18:00:03.133Z,12.83
2019-01-06T18:03:11.166Z,16.37
2019-01-06T18:09:28.509Z,13.60
2019-01-06T18:12:17.104Z,14.43
2019-01-06T18:15:45.919Z,16.93
2019-01-06T18:18:53.826Z,16.60
2019-01-06T18:25:11.090Z,14.50
2019-01-06T18:28:19.064Z,12.87
2019-01-06T18:31:07.793Z,15.20
2019-01-06T18:34:15.672Z,12.93
2019-01-06T18:43:05.595Z,15.17
2019-01-06T18:49:22.928Z,18.27
2019-01-06T18:52:30.934Z,13.60
2019-01-06T18:55:39.601Z,14.63
2019-01-06T18:58:47.629Z,12.17
2019-01-06T19:01:59.279Z,14.33
2019-01-06T19:04:46.317Z,17.70
2019-01-06T19:07:54.503Z,13.93
2019-01-06T19:11:03.146Z,15.20
2019-01-06T19:17:10.429Z,13.03
2019-01-06T19:19:59.211Z,11.70
2019-01-06T19:25:57.484Z,13.83
2019-01-06T19:29:05.524Z,14.77
2019-01-06T19:31:54.152Z,15.27
2019-01-06T19:35:02.110Z,13.13
2019-01-06T19:46:53.397Z,12.97
2019-01-06T19:58:13.987Z,16.47
2019-01-06T20:01:21.928Z,12.67
2019-01-06T20:04:30.524Z,14.13
2019-01-06T20:10:47.871Z,13.83
2019-01-06T20:16:38.875Z,13.23
2019-01-06T20:19:46.808Z,14.87
2019-01-06T20:25:53.973Z,14.70
2019-01-06T20:29:01.630Z,12.80
2019-01-06T20:32:09.517Z,13.73
2019-01-06T20:35:17.384Z,12.93
2019-01-06T20:44:30.280Z,15.30
2019-01-06T20:47:38.129Z,12.83
2019-01-06T20:50:46.031Z,14.53
2019-01-06T20:59:59.237Z,18.03
2019-01-06T21:06:16.518Z,17.07
2019-01-06T21:09:45.301Z,16.87
2019-01-06T21:16:01.330Z,16.70
2019-01-06T21:22:18.624Z,17.13
2019-01-06T21:25:26.489Z,18.00
2019-01-06T21:28:34.375Z,15.33
2019-01-06T21:31:42.306Z,17.93
2019-01-06T21:34:50.188Z,18.57
2019-01-06T21:37:58.097Z,18.73
2019-01-06T21:41:06.034Z,17.07
2019-01-06T21:44:13.919Z,20.13
2019-01-06T21:47:21.848Z,18.47
2019-01-06T21:50:29.948Z,20.07
2019-01-06T21:56:34.154Z,19.47
2019-01-06T21:59:42.098Z,16.67
2019-01-06T22:02:30.725Z,20.37
2019-01-06T22:05:17.252Z,18.43
2019-01-06T22:08:25.118Z,16.30
2019-01-06T22:11:13.762Z,17.37
2019-01-06T22:14:21.708Z,18.37
2019-01-06T22:17:29.671Z,16.57
2019-01-06T22:20:37.524Z,16.83
2019-01-06T22:23:45.467Z,19.17
2019-01-06T22:30:02.749Z,17.83
2019-01-06T22:33:10.604Z,16.67
2019-01-06T22:36:18.589Z,16.20
2019-01-06T22:42:02.765Z,16.47
2019-01-06T22:45:10.649Z,13.70
2019-01-06T22:47:59.158Z,17.60
2019-01-06T22:54:02.070Z,20.60
2019-01-06T22:57:09.982Z,15.80
2019-01-06T23:00:17.894Z,15.23
2019-01-06T23:03:25.788Z,17.93
2019-01-06T23:09:33.023Z,15.03
2019-01-06T23:15:50.349Z,15.70
2019-01-06T23:18:58.219Z,14.50
2019-01-06T23:24:56.219Z,14.63
2019-01-06T23:28:04.129Z,17.50
2019-01-06T23:31:11.997Z,16.90
2019-01-06T23:34:19.883Z,13.80
2019-01-06T23:37:27.742Z,16.80
2019-01-06T23:43:12.255Z,17.87
2019-01-06T23:45:56.391Z,17.07
2019-01-06T23:54:55.900Z,19.33
